Ohiowa, NE

8:58 PM CST on November 21, 2014 (GMT -0600)
Geneva | Change Station
CLOSE
Current Station
Personal Weather Station
Location: Geneva, NE
Elevation: 1640 ft
Nearby Weather Stations

Elev 1640 ft 40.53 °N, 97.61 °W | Updated 7 seconds ago

Overcast
Overcast
36.0 °F
Feels Like 32 °F
N
4.7
Wind Variable Wind from SSE
Gusts 6.0 mph

Today
High -- | Low -- °F
--% Chance of Precip.
Yesterday
High -- | Low -- °F
Precip. -- in
7:22 AM 5:08 PM
Waning Crescent, 0% visible
Pressure 30.01 in
Visibility 7.0 miles
Clouds Mostly Cloudy 900 ft
Overcast 1300 ft
Windchill 32 °F
Dew Point 32 °F
Humidity 85%
Rainfall 0.00 in
Snow Depth Not available.
UV 0 out of 12
Pollen .10 out of 12
Air Quality Not available.
Flu Activity Not available.
METAR KHJH 220235Z AUTO 17004KT 7SM BKN009 OVC013 02/00 A3001 RMK AO2 T00230000

More Conditions Fewer Conditions

Pressure 30.01 in
Visibility 7.0 miles
Clouds Mostly Cloudy 900 ft
Overcast 1300 ft
Windchill 32 °F
Dew Point 32 °F
Humidity 85%
Rainfall 0.00 in
Snow Depth Not available.
UV 0 out of 12
Pollen .10 out of 12
Air Quality Not available.
Flu Activity Not available.
METAR KHJH 220235Z AUTO 17004KT 7SM BKN009 OVC013 02/00 A3001 RMK AO2 T00230000

More Conditions Fewer Conditions

10-Day Weather Forecast

Almanac

Astronomy

Nov. 21, 2014 Rise Set
Actual Time
Civil Twilight
Nautical Twilight
Astronomical Twilight
Moon
Length of Visible Light
Length of Day
Tomorrow will be .
, % of the Moon is Illuminated

Today's Extremes

State Highs State Lows

Community

WunderPhotos

Upload Photos

1,772,761 photos uploaded!

WunderBlogs® & News

Nearby

Air Quality

  Air Quality AQ Index Pollutant
Not available.

Snow Depth

Station Depth Elevation

Earthquake Activity

City Distance Mag. Time & Date
Minimum magnitude displayed is 2.5.

Coastal Water Temperatures

Place Temperature

Nearby Weather Stations